No se requiere ningun cuidado especial respecto a la situación metereológica.   -   No hay avisos

Informes METAR

 

KSJC - San Jose, California, USA
Distancia de la estación: NE 14km
Actualización: 06/03/2021 23:53
Poco nuboso
Poco nuboso
 Viento de NO
Viento: NO 22 km/h
Temperatura: 15°C
Rocío: 6°C
Humedad: 55%
Barómetro: 1019.6 hPa
Nubes: Poco nuboso
Visibilidad: 16 km
Detalles de las nubes: Poco nuboso 914 m
Poco nuboso 1128 m
Poco nuboso 6096 m
2021/03/06 22:53 KSJC 062253Z 32012KT 10SM FEW030 FEW037 FEW200 15/06 A3011 RMK AO2 SLP195 T01500056
KNUQ - Moffett Nas/Mtn, California, USA
Distancia de la estación: N 14km
Actualización: 07/03/2021 00:15
Despejado
Despejado
 Viento de NNO
Viento: NNO 17 km/h
Temperatura: 14°C
Rocío: 5°C
Humedad: 55%
Barómetro: 1020 hPa
Nubes: Despejado
Visibilidad: 16 km
2021/03/06 23:15 KNUQ 062315Z AUTO 34009KT 10SM CLR 14/05 A3012 RMK AO2
 
KPAO - Palo Alto, California, USA
Distancia de la estación: NNO 23km
Actualización: 06/03/2021 23:47
Poco nuboso
Poco nuboso
 Viento de SO
Viento: SO 20 km/h
Temperatura: 14°C
Rocío: 5°C
Humedad: 55%
Barómetro: 1020 hPa
Nubes: Poco nuboso
Visibilidad: 16 km
Detalles de las nubes: Poco nuboso 762 m
2021/03/06 22:47 KPAO 062247Z 23011KT 10SM FEW025 14/05 A3012
KRHV - San Jose/Reid, California, USA
Distancia de la estación: ENE 19km
Actualización: 06/03/2021 22:47
NOT Current
Parcialmente nuboso
Parcialmente nuboso
 Viento de NNO
Viento: NNO 13 km/h
Temperatura: 14°C
Rocío: 6°C
Humedad: 59%
Barómetro: 1020 hPa
Nubes: Parcialmente nuboso
Visibilidad: 16 km
Detalles de las nubes: Parcialmente nuboso 732 m
2021/03/06 21:47 KRHV 062147Z 34007KT 10SM SCT024 14/06 A3012
 
KOAK - Oakland, California, USA
Distancia de la estación: NNO 50km
Actualización: 06/03/2021 23:53
Poco nuboso
Poco nuboso
 Viento de ONO
Viento: ONO 19 km/h
Temperatura: 16°C
Rocío: 7°C
Humedad: 55%
Barómetro: 1020 hPa
Nubes: Poco nuboso
Visibilidad: 16 km
Detalles de las nubes: Poco nuboso 914 m
2021/03/06 22:53 KOAK 062253Z 29010KT 10SM FEW030 16/07 A3012 RMK AO2 SLP200 T01610067
KSQL - San Carlos Airpo, California, USA
Distancia de la estación: NO 34km
Actualización: 06/03/2021 23:50
Despejado
Despejado
 Viento de O
Viento: O 15 km/h
Temperatura: 14°C
Rocío: 5°C
Humedad: 55%
Barómetro: 1020.3 hPa
Nubes: Despejado
Visibilidad: 16 km
2021/03/06 22:50 KSQL 062250Z 28008KT 10SM SKC 14/05 A3013
 
KSFO - San Francisco, California, USA
Distancia de la estación: NO 49km
Actualización: 06/03/2021 23:56
Poco nuboso
Poco nuboso
 Viento de O
Viento: O 28 km/h
Temperatura: 14°C
Rocío: 6°C
Humedad: 59%
Barómetro: 1020 hPa
Nubes: Poco nuboso
Visibilidad: 16 km
Detalles de las nubes: Poco nuboso 762 m
Poco nuboso 6096 m
2021/03/06 22:56 KSFO 062256Z 28015KT 10SM FEW025 FEW200 14/06 A3012 RMK AO2 SLP200 T01390061
KE16 - San Martin, California, USA
Distancia de la estación: ESE 43km
Actualización: 07/03/2021 00:15
Poco nuboso
Poco nuboso
 Viento de NO
Viento: NO 20 km/h, Racha: 31 km/h
Temperatura: 15°C
Rocío: 0°C
Humedad: 36%
Barómetro: 1019.3 hPa
Nubes: Poco nuboso
Visibilidad: 16 km
Detalles de las nubes: Poco nuboso 1676 m
2021/03/06 23:15 KE16 062315Z AUTO 32011G17KT 10SM FEW055 15/00 A3010 RMK AO2 PWINO PNO
 
KWVI - Watsonville, California, USA
Distancia de la estación: SSE 44km
Actualización: 06/03/2021 23:53
Despejado
Despejado
 Viento de OSO
Viento: OSO 15 km/h
Temperatura: 15°C
Rocío: 7°C
Humedad: 59%
Barómetro: 1019.3 hPa
Nubes: Despejado
Visibilidad: 16 km
2021/03/06 22:53 KWVI 062253Z AUTO 24008KT 10SM CLR 15/07 A3010 RMK AO2 SLP192 T01500072
KHAF - Half Moon Bay, California, USA
Distancia de la estación: ONO 50km
Actualización: 07/03/2021 00:15
Despejado
Despejado
 Viento de NO
Viento: NO 22 km/h
Temperatura: 11°C
Rocío: 7°C
Humedad: 77%
Barómetro: 1021 hPa
Nubes: Despejado
Visibilidad: 14 km
2021/03/06 23:15 KHAF 062315Z AUTO 32012KT 9SM CLR 11/07 A3015 RMK AO2
 
KHWD - Hayward, California, USA
Distancia de la estación: N 44km
Actualización: 06/03/2021 23:54
Despejado
Despejado
 Viento de ONO
Viento: ONO 20 km/h
Temperatura: 14°C
Rocío: 6°C
Humedad: 59%
Barómetro: 1019.6 hPa
Nubes: Despejado
Visibilidad: 16 km
2021/03/06 22:54 KHWD 062254Z 29011KT 10SM CLR 14/06 A3011 RMK AO2 SLP206 T01390061
KLVK - Livermore, California, USA
Distancia de la estación: NNE 51km
Actualización: 06/03/2021 23:53
Despejado
Despejado
 Viento de SO
Viento: SO 11 km/h
Temperatura: 16°C
Rocío: 2°C
Humedad: 39%
Barómetro: 1018.6 hPa
Nubes: Despejado
Visibilidad: 16 km
2021/03/06 22:53 KLVK 062253Z 23006KT 10SM CLR 16/02 A3008 RMK AO2 SLP185 T01560017